sensor_id;sensor_type;location;lat;lon;timestamp;temperature;humidity
18541;DHT22;9400;50.924;5.328;2023-07-31T00:01:46;17.30;99.90
18541;DHT22;9400;50.924;5.328;2023-07-31T00:04:14;17.30;99.90
18541;DHT22;9400;50.924;5.328;2023-07-31T00:06:42;17.30;99.90
18541;DHT22;9400;50.924;5.328;2023-07-31T00:09:10;17.20;99.90
18541;DHT22;9400;50.924;5.328;2023-07-31T00:11:37;17.20;99.90
18541;DHT22;9400;50.924;5.328;2023-07-31T00:14:05;17.20;99.90
18541;DHT22;9400;50.924;5.328;2023-07-31T00:16:33;17.20;99.90
18541;DHT22;9400;50.924;5.328;2023-07-31T00:19:01;17.20;99.90
18541;DHT22;9400;50.924;5.328;2023-07-31T00:21:28;17.20;99.90
18541;DHT22;9400;50.924;5.328;2023-07-31T00:23:57;17.20;99.90
18541;DHT22;9400;50.924;5.328;2023-07-31T00:26:25;17.20;99.90
18541;DHT22;9400;50.924;5.328;2023-07-31T00:28:55;17.20;99.90
18541;DHT22;9400;50.924;5.328;2023-07-31T00:31:23;17.20;99.90
18541;DHT22;9400;50.924;5.328;2023-07-31T00:33:51;17.20;99.90
18541;DHT22;9400;50.924;5.328;2023-07-31T00:36:18;17.10;99.90
18541;DHT22;9400;50.924;5.328;2023-07-31T00:38:45;17.10;99.90
18541;DHT22;9400;50.924;5.328;2023-07-31T00:41:14;17.10;99.90
18541;DHT22;9400;50.924;5.328;2023-07-31T00:43:42;17.10;99.90
18541;DHT22;9400;50.924;5.328;2023-07-31T00:46:10;17.10;99.90
18541;DHT22;9400;50.924;5.328;2023-07-31T00:48:38;17.20;99.90
18541;DHT22;9400;50.924;5.328;2023-07-31T00:51:07;17.20;99.90
18541;DHT22;9400;50.924;5.328;2023-07-31T00:53:35;17.20;99.90
18541;DHT22;9400;50.924;5.328;2023-07-31T00:56:04;17.30;99.90
18541;DHT22;9400;50.924;5.328;2023-07-31T00:58:33;17.30;99.90
18541;DHT22;9400;50.924;5.328;2023-07-31T01:01:01;17.40;99.90
18541;DHT22;9400;50.924;5.328;2023-07-31T01:03:28;17.40;99.90
18541;DHT22;9400;50.924;5.328;2023-07-31T01:06:07;17.30;99.90
18541;DHT22;9400;50.924;5.328;2023-07-31T01:08:42;17.40;99.90
18541;DHT22;9400;50.924;5.328;2023-07-31T01:11:16;17.40;99.90
18541;DHT22;9400;50.924;5.328;2023-07-31T01:13:46;17.40;99.90
18541;DHT22;9400;50.924;5.328;2023-07-31T01:16:13;17.40;99.90
18541;DHT22;9400;50.924;5.328;2023-07-31T01:18:41;17.40;99.90
18541;DHT22;9400;50.924;5.328;2023-07-31T01:21:22;17.50;99.90
18541;DHT22;9400;50.924;5.328;2023-07-31T01:24:21;17.50;99.90
18541;DHT22;9400;50.924;5.328;2023-07-31T01:26:56;17.50;99.90
18541;DHT22;9400;50.924;5.328;2023-07-31T01:29:32;17.50;99.90
18541;DHT22;9400;50.924;5.328;2023-07-31T01:32:02;17.60;99.90
18541;DHT22;9400;50.924;5.328;2023-07-31T01:34:30;17.60;99.90
18541;DHT22;9400;50.924;5.328;2023-07-31T01:36:59;17.60;99.90
18541;DHT22;9400;50.924;5.328;2023-07-31T01:39:26;17.60;99.90
18541;DHT22;9400;50.924;5.328;2023-07-31T01:41:55;17.60;99.90
18541;DHT22;9400;50.924;5.328;2023-07-31T01:44:23;17.70;99.90
18541;DHT22;9400;50.924;5.328;2023-07-31T01:46:50;17.70;99.90
18541;DHT22;9400;50.924;5.328;2023-07-31T01:49:18;17.70;99.90
18541;DHT22;9400;50.924;5.328;2023-07-31T01:51:45;17.70;99.90
18541;DHT22;9400;50.924;5.328;2023-07-31T01:54:13;17.70;99.90
18541;DHT22;9400;50.924;5.328;2023-07-31T01:56:40;17.70;99.90
18541;DHT22;9400;50.924;5.328;2023-07-31T01:59:09;17.70;99.90
18541;DHT22;9400;50.924;5.328;2023-07-31T02:01:37;17.80;99.90
18541;DHT22;9400;50.924;5.328;2023-07-31T02:04:04;17.70;99.90
18541;DHT22;9400;50.924;5.328;2023-07-31T02:06:32;17.80;99.90
18541;DHT22;9400;50.924;5.328;2023-07-31T02:08:59;17.70;99.90
18541;DHT22;9400;50.924;5.328;2023-07-31T02:11:26;17.70;99.90
18541;DHT22;9400;50.924;5.328;2023-07-31T02:13:54;17.80;99.90
18541;DHT22;9400;50.924;5.328;2023-07-31T02:16:26;17.70;99.90
18541;DHT22;9400;50.924;5.328;2023-07-31T02:18:53;17.70;99.90
18541;DHT22;9400;50.924;5.328;2023-07-31T02:21:21;17.70;99.90
18541;DHT22;9400;50.924;5.328;2023-07-31T02:23:48;17.70;99.90
18541;DHT22;9400;50.924;5.328;2023-07-31T02:26:16;17.70;99.90
18541;DHT22;9400;50.924;5.328;2023-07-31T02:28:43;17.70;99.90
18541;DHT22;9400;50.924;5.328;2023-07-31T02:31:10;17.70;99.90
18541;DHT22;9400;50.924;5.328;2023-07-31T02:33:39;17.70;99.90
18541;DHT22;9400;50.924;5.328;2023-07-31T02:36:09;17.70;99.90
18541;DHT22;9400;50.924;5.328;2023-07-31T02:38:39;17.60;99.90
18541;DHT22;9400;50.924;5.328;2023-07-31T02:41:07;17.60;99.90
18541;DHT22;9400;50.924;5.328;2023-07-31T02:43:34;17.60;99.90
18541;DHT22;9400;50.924;5.328;2023-07-31T02:46:02;17.60;99.90
18541;DHT22;9400;50.924;5.328;2023-07-31T02:48:30;17.60;99.90
18541;DHT22;9400;50.924;5.328;2023-07-31T02:50:59;17.60;99.90
18541;DHT22;9400;50.924;5.328;2023-07-31T02:53:26;17.70;99.90
18541;DHT22;9400;50.924;5.328;2023-07-31T02:55:53;17.70;99.90
18541;DHT22;9400;50.924;5.328;2023-07-31T02:58:21;17.70;99.90
18541;DHT22;9400;50.924;5.328;2023-07-31T03:00:48;17.70;99.90
18541;DHT22;9400;50.924;5.328;2023-07-31T03:03:16;17.70;99.90
18541;DHT22;9400;50.924;5.328;2023-07-31T03:05:43;17.70;99.90
18541;DHT22;9400;50.924;5.328;2023-07-31T03:08:12;17.70;99.90
18541;DHT22;9400;50.924;5.328;2023-07-31T03:10:40;17.70;99.90
18541;DHT22;9400;50.924;5.328;2023-07-31T03:13:08;17.80;99.90
18541;DHT22;9400;50.924;5.328;2023-07-31T03:15:35;17.70;99.90
18541;DHT22;9400;50.924;5.328;2023-07-31T03:18:03;17.70;99.90
18541;DHT22;9400;50.924;5.328;2023-07-31T03:20:31;17.70;99.90
18541;DHT22;9400;50.924;5.328;2023-07-31T03:22:58;17.70;99.90
18541;DHT22;9400;50.924;5.328;2023-07-31T03:25:27;17.70;99.90
18541;DHT22;9400;50.924;5.328;2023-07-31T03:27:55;17.70;99.90
18541;DHT22;9400;50.924;5.328;2023-07-31T03:30:22;17.70;99.90
18541;DHT22;9400;50.924;5.328;2023-07-31T03:32:49;17.70;99.90
18541;DHT22;9400;50.924;5.328;2023-07-31T03:35:17;17.80;99.90
18541;DHT22;9400;50.924;5.328;2023-07-31T03:37:44;17.70;99.90
18541;DHT22;9400;50.924;5.328;2023-07-31T03:40:12;17.70;99.90
18541;DHT22;9400;50.924;5.328;2023-07-31T03:42:39;17.70;99.90
18541;DHT22;9400;50.924;5.328;2023-07-31T03:45:08;17.70;99.90
18541;DHT22;9400;50.924;5.328;2023-07-31T03:47:36;17.70;99.90
18541;DHT22;9400;50.924;5.328;2023-07-31T03:50:04;17.70;99.90
18541;DHT22;9400;50.924;5.328;2023-07-31T03:52:32;17.70;99.90
18541;DHT22;9400;50.924;5.328;2023-07-31T03:54:59;17.70;99.90
18541;DHT22;9400;50.924;5.328;2023-07-31T03:57:26;17.80;99.90
18541;DHT22;9400;50.924;5.328;2023-07-31T03:59:55;17.80;99.90
18541;DHT22;9400;50.924;5.328;2023-07-31T04:02:24;17.70;99.90
18541;DHT22;9400;50.924;5.328;2023-07-31T04:04:52;17.70;99.90
18541;DHT22;9400;50.924;5.328;2023-07-31T04:07:19;17.70;99.90
18541;DHT22;9400;50.924;5.328;2023-07-31T04:09:47;17.70;99.90
18541;DHT22;9400;50.924;5.328;2023-07-31T04:12:15;17.70;99.90
18541;DHT22;9400;50.924;5.328;2023-07-31T04:14:42;17.80;99.90
18541;DHT22;9400;50.924;5.328;2023-07-31T04:17:11;17.80;99.90
18541;DHT22;9400;50.924;5.328;2023-07-31T04:19:39;17.80;99.90
18541;DHT22;9400;50.924;5.328;2023-07-31T04:22:06;17.80;99.90
18541;DHT22;9400;50.924;5.328;2023-07-31T04:24:34;17.70;99.90
18541;DHT22;9400;50.924;5.328;2023-07-31T04:27:01;17.80;99.90
18541;DHT22;9400;50.924;5.328;2023-07-31T04:29:29;17.80;99.90
18541;DHT22;9400;50.924;5.328;2023-07-31T04:31:56;17.80;99.90
18541;DHT22;9400;50.924;5.328;2023-07-31T04:34:25;17.80;99.90
18541;DHT22;9400;50.924;5.328;2023-07-31T04:36:53;17.80;99.90
18541;DHT22;9400;50.924;5.328;2023-07-31T04:39:20;17.80;99.90
18541;DHT22;9400;50.924;5.328;2023-07-31T04:41:48;17.80;99.90
18541;DHT22;9400;50.924;5.328;2023-07-31T04:44:16;17.80;99.90
18541;DHT22;9400;50.924;5.328;2023-07-31T04:46:43;17.80;99.90
18541;DHT22;9400;50.924;5.328;2023-07-31T04:49:11;17.70;99.90
18541;DHT22;9400;50.924;5.328;2023-07-31T04:51:40;17.70;99.90
18541;DHT22;9400;50.924;5.328;2023-07-31T04:54:08;17.70;99.90
18541;DHT22;9400;50.924;5.328;2023-07-31T04:56:35;17.60;99.90
18541;DHT22;9400;50.924;5.328;2023-07-31T04:59:03;17.60;99.90
18541;DHT22;9400;50.924;5.328;2023-07-31T05:01:30;17.50;99.90
18541;DHT22;9400;50.924;5.328;2023-07-31T05:03:57;17.40;99.90
18541;DHT22;9400;50.924;5.328;2023-07-31T05:06:25;17.30;99.90
18541;DHT22;9400;50.924;5.328;2023-07-31T05:08:54;17.30;99.90
18541;DHT22;9400;50.924;5.328;2023-07-31T05:11:23;17.20;99.90
18541;DHT22;9400;50.924;5.328;2023-07-31T05:13:51;17.20;99.90
18541;DHT22;9400;50.924;5.328;2023-07-31T05:16:18;17.30;99.90
18541;DHT22;9400;50.924;5.328;2023-07-31T05:18:47;17.20;99.90
18541;DHT22;9400;50.924;5.328;2023-07-31T05:21:14;17.30;99.90
18541;DHT22;9400;50.924;5.328;2023-07-31T05:23:42;17.30;99.90
18541;DHT22;9400;50.924;5.328;2023-07-31T05:26:10;17.40;99.90
18541;DHT22;9400;50.924;5.328;2023-07-31T05:28:38;17.40;99.90
18541;DHT22;9400;50.924;5.328;2023-07-31T05:31:06;17.40;99.90
18541;DHT22;9400;50.924;5.328;2023-07-31T05:33:34;17.40;99.90
18541;DHT22;9400;50.924;5.328;2023-07-31T05:36:01;17.50;99.90
18541;DHT22;9400;50.924;5.328;2023-07-31T05:38:29;17.50;99.90
18541;DHT22;9400;50.924;5.328;2023-07-31T05:40:56;17.50;99.90
18541;DHT22;9400;50.924;5.328;2023-07-31T05:43:25;17.50;99.90
18541;DHT22;9400;50.924;5.328;2023-07-31T05:45:52;17.50;99.90
18541;DHT22;9400;50.924;5.328;2023-07-31T05:48:19;17.50;99.90
18541;DHT22;9400;50.924;5.328;2023-07-31T05:50:46;17.50;99.90
18541;DHT22;9400;50.924;5.328;2023-07-31T05:53:14;17.50;99.90
18541;DHT22;9400;50.924;5.328;2023-07-31T05:55:41;17.60;99.90
18541;DHT22;9400;50.924;5.328;2023-07-31T05:58:08;17.50;99.90
18541;DHT22;9400;50.924;5.328;2023-07-31T06:00:37;17.50;99.90
18541;DHT22;9400;50.924;5.328;2023-07-31T06:03:05;17.40;99.90
18541;DHT22;9400;50.924;5.328;2023-07-31T06:05:32;17.50;99.90
18541;DHT22;9400;50.924;5.328;2023-07-31T06:08:00;17.50;99.90
18541;DHT22;9400;50.924;5.328;2023-07-31T06:10:27;17.40;99.90
18541;DHT22;9400;50.924;5.328;2023-07-31T06:12:55;17.30;99.90
18541;DHT22;9400;50.924;5.328;2023-07-31T06:15:23;17.30;99.90
18541;DHT22;9400;50.924;5.328;2023-07-31T06:17:52;17.20;99.90
18541;DHT22;9400;50.924;5.328;2023-07-31T06:20:20;17.10;99.90
18541;DHT22;9400;50.924;5.328;2023-07-31T06:22:47;17.10;99.90
18541;DHT22;9400;50.924;5.328;2023-07-31T06:25:15;17.00;99.90
18541;DHT22;9400;50.924;5.328;2023-07-31T06:27:42;16.90;99.90
18541;DHT22;9400;50.924;5.328;2023-07-31T06:30:10;16.90;99.90
18541;DHT22;9400;50.924;5.328;2023-07-31T06:32:38;16.90;99.90
18541;DHT22;9400;50.924;5.328;2023-07-31T06:35:08;16.90;99.90
18541;DHT22;9400;50.924;5.328;2023-07-31T06:37:36;16.90;99.90
18541;DHT22;9400;50.924;5.328;2023-07-31T06:40:07;16.90;99.90
18541;DHT22;9400;50.924;5.328;2023-07-31T06:42:35;16.90;99.90
18541;DHT22;9400;50.924;5.328;2023-07-31T06:45:02;16.90;99.90
18541;DHT22;9400;50.924;5.328;2023-07-31T06:47:30;16.80;99.90
18541;DHT22;9400;50.924;5.328;2023-07-31T06:49:57;16.90;99.90
18541;DHT22;9400;50.924;5.328;2023-07-31T06:52:27;16.90;99.90
18541;DHT22;9400;50.924;5.328;2023-07-31T06:55:01;17.00;99.90
18541;DHT22;9400;50.924;5.328;2023-07-31T06:57:30;17.10;99.90
18541;DHT22;9400;50.924;5.328;2023-07-31T06:59:58;17.00;99.90
18541;DHT22;9400;50.924;5.328;2023-07-31T07:02:26;17.00;99.90
18541;DHT22;9400;50.924;5.328;2023-07-31T07:04:53;17.00;99.90
18541;DHT22;9400;50.924;5.328;2023-07-31T07:07:21;17.20;99.90
18541;DHT22;9400;50.924;5.328;2023-07-31T07:09:49;17.20;99.90
18541;DHT22;9400;50.924;5.328;2023-07-31T07:12:17;17.30;99.90
18541;DHT22;9400;50.924;5.328;2023-07-31T07:14:44;17.30;99.90
18541;DHT22;9400;50.924;5.328;2023-07-31T07:17:13;17.30;99.90
18541;DHT22;9400;50.924;5.328;2023-07-31T07:19:41;17.40;99.90
18541;DHT22;9400;50.924;5.328;2023-07-31T07:22:08;17.40;99.90
18541;DHT22;9400;50.924;5.328;2023-07-31T07:24:36;17.50;99.90
18541;DHT22;9400;50.924;5.328;2023-07-31T07:27:05;17.70;99.90
18541;DHT22;9400;50.924;5.328;2023-07-31T07:29:34;17.60;99.90
18541;DHT22;9400;50.924;5.328;2023-07-31T07:32:03;17.70;99.90
18541;DHT22;9400;50.924;5.328;2023-07-31T07:34:31;17.80;99.90
18541;DHT22;9400;50.924;5.328;2023-07-31T07:36:59;17.70;99.90
18541;DHT22;9400;50.924;5.328;2023-07-31T07:39:27;17.80;99.90
18541;DHT22;9400;50.924;5.328;2023-07-31T07:41:55;17.80;99.90
18541;DHT22;9400;50.924;5.328;2023-07-31T07:44:24;17.60;99.90
18541;DHT22;9400;50.924;5.328;2023-07-31T07:46:52;17.50;99.90
18541;DHT22;9400;50.924;5.328;2023-07-31T07:49:20;17.50;99.90
18541;DHT22;9400;50.924;5.328;2023-07-31T07:51:48;17.50;99.90
18541;DHT22;9400;50.924;5.328;2023-07-31T07:54:16;17.50;99.90
18541;DHT22;9400;50.924;5.328;2023-07-31T07:56:44;17.60;99.90
18541;DHT22;9400;50.924;5.328;2023-07-31T07:59:12;17.60;99.90
18541;DHT22;9400;50.924;5.328;2023-07-31T08:01:41;17.60;99.90
18541;DHT22;9400;50.924;5.328;2023-07-31T08:04:08;17.70;99.90
18541;DHT22;9400;50.924;5.328;2023-07-31T08:06:36;17.70;99.90
18541;DHT22;9400;50.924;5.328;2023-07-31T08:09:03;17.70;99.90
18541;DHT22;9400;50.924;5.328;2023-07-31T08:11:32;17.80;99.90
18541;DHT22;9400;50.924;5.328;2023-07-31T08:13:59;17.80;99.90
18541;DHT22;9400;50.924;5.328;2023-07-31T08:16:27;17.70;99.90
18541;DHT22;9400;50.924;5.328;2023-07-31T08:18:56;17.70;99.90
18541;DHT22;9400;50.924;5.328;2023-07-31T08:21:23;17.80;99.90
18541;DHT22;9400;50.924;5.328;2023-07-31T08:23:51;17.80;99.90
18541;DHT22;9400;50.924;5.328;2023-07-31T08:26:20;17.80;99.90
18541;DHT22;9400;50.924;5.328;2023-07-31T08:28:48;17.80;99.90
18541;DHT22;9400;50.924;5.328;2023-07-31T08:31:15;17.80;99.90
18541;DHT22;9400;50.924;5.328;2023-07-31T08:33:44;17.80;99.90
18541;DHT22;9400;50.924;5.328;2023-07-31T08:36:14;17.80;99.90
18541;DHT22;9400;50.924;5.328;2023-07-31T08:38:41;17.90;99.90
18541;DHT22;9400;50.924;5.328;2023-07-31T08:41:09;18.00;99.90
18541;DHT22;9400;50.924;5.328;2023-07-31T08:43:36;17.90;99.90
18541;DHT22;9400;50.924;5.328;2023-07-31T08:46:05;17.80;99.90
18541;DHT22;9400;50.924;5.328;2023-07-31T08:48:32;17.80;99.90
18541;DHT22;9400;50.924;5.328;2023-07-31T08:51:01;17.90;99.90
18541;DHT22;9400;50.924;5.328;2023-07-31T08:53:31;17.80;99.90
18541;DHT22;9400;50.924;5.328;2023-07-31T08:55:59;17.80;99.90
18541;DHT22;9400;50.924;5.328;2023-07-31T08:58:29;17.80;99.90
18541;DHT22;9400;50.924;5.328;2023-07-31T09:00:59;17.80;99.90
18541;DHT22;9400;50.924;5.328;2023-07-31T09:03:33;17.80;99.90
18541;DHT22;9400;50.924;5.328;2023-07-31T09:06:00;17.90;99.90
18541;DHT22;9400;50.924;5.328;2023-07-31T09:08:31;17.90;99.90
18541;DHT22;9400;50.924;5.328;2023-07-31T09:11:00;17.90;99.90
18541;DHT22;9400;50.924;5.328;2023-07-31T09:13:29;18.00;99.90
18541;DHT22;9400;50.924;5.328;2023-07-31T09:15:58;18.00;99.90
18541;DHT22;9400;50.924;5.328;2023-07-31T09:18:26;18.00;99.90
18541;DHT22;9400;50.924;5.328;2023-07-31T09:21:03;18.10;99.90
18541;DHT22;9400;50.924;5.328;2023-07-31T09:23:42;18.20;99.90
18541;DHT22;9400;50.924;5.328;2023-07-31T09:26:10;18.20;99.90
18541;DHT22;9400;50.924;5.328;2023-07-31T09:28:38;18.10;99.90
18541;DHT22;9400;50.924;5.328;2023-07-31T09:31:11;18.00;99.90
18541;DHT22;9400;50.924;5.328;2023-07-31T09:33:54;18.00;99.90
18541;DHT22;9400;50.924;5.328;2023-07-31T09:36:22;18.10;99.90
18541;DHT22;9400;50.924;5.328;2023-07-31T09:38:52;18.20;99.90
18541;DHT22;9400;50.924;5.328;2023-07-31T09:41:19;18.10;99.90
18541;DHT22;9400;50.924;5.328;2023-07-31T09:43:53;18.10;99.90
18541;DHT22;9400;50.924;5.328;2023-07-31T09:46:21;18.10;99.90
18541;DHT22;9400;50.924;5.328;2023-07-31T09:48:49;18.20;99.90
18541;DHT22;9400;50.924;5.328;2023-07-31T09:51:26;18.20;99.90
18541;DHT22;9400;50.924;5.328;2023-07-31T09:53:55;18.30;99.90
18541;DHT22;9400;50.924;5.328;2023-07-31T09:56:23;18.30;99.90
18541;DHT22;9400;50.924;5.328;2023-07-31T09:58:52;18.40;99.90
18541;DHT22;9400;50.924;5.328;2023-07-31T10:01:20;18.50;99.90
18541;DHT22;9400;50.924;5.328;2023-07-31T10:03:49;18.50;99.90
18541;DHT22;9400;50.924;5.328;2023-07-31T10:06:17;18.60;99.90
18541;DHT22;9400;50.924;5.328;2023-07-31T10:08:48;18.70;99.90
18541;DHT22;9400;50.924;5.328;2023-07-31T10:11:21;18.70;99.90
18541;DHT22;9400;50.924;5.328;2023-07-31T10:13:50;18.70;99.90
18541;DHT22;9400;50.924;5.328;2023-07-31T10:16:18;18.70;99.90
18541;DHT22;9400;50.924;5.328;2023-07-31T10:18:46;18.70;99.90
18541;DHT22;9400;50.924;5.328;2023-07-31T10:21:14;18.60;99.90
18541;DHT22;9400;50.924;5.328;2023-07-31T10:23:43;18.60;99.90
18541;DHT22;9400;50.924;5.328;2023-07-31T10:26:11;18.80;99.90
18541;DHT22;9400;50.924;5.328;2023-07-31T10:28:42;18.90;99.90
18541;DHT22;9400;50.924;5.328;2023-07-31T10:31:11;19.00;99.90
18541;DHT22;9400;50.924;5.328;2023-07-31T10:33:39;19.00;99.90
18541;DHT22;9400;50.924;5.328;2023-07-31T10:36:13;18.90;99.90
18541;DHT22;9400;50.924;5.328;2023-07-31T10:38:43;18.80;99.90
18541;DHT22;9400;50.924;5.328;2023-07-31T10:41:11;18.90;99.90
18541;DHT22;9400;50.924;5.328;2023-07-31T10:43:38;18.80;99.90
18541;DHT22;9400;50.924;5.328;2023-07-31T10:46:12;19.00;99.90
18541;DHT22;9400;50.924;5.328;2023-07-31T10:48:41;19.00;99.90
18541;DHT22;9400;50.924;5.328;2023-07-31T10:51:10;19.20;99.90
18541;DHT22;9400;50.924;5.328;2023-07-31T10:53:39;19.30;99.90
18541;DHT22;9400;50.924;5.328;2023-07-31T10:56:08;19.30;99.90
18541;DHT22;9400;50.924;5.328;2023-07-31T10:58:38;19.40;99.90
18541;DHT22;9400;50.924;5.328;2023-07-31T11:01:06;19.20;99.90
18541;DHT22;9400;50.924;5.328;2023-07-31T11:03:45;19.30;99.90
18541;DHT22;9400;50.924;5.328;2023-07-31T11:06:14;19.40;99.90
18541;DHT22;9400;50.924;5.328;2023-07-31T11:08:43;19.40;99.90
18541;DHT22;9400;50.924;5.328;2023-07-31T11:11:12;19.40;99.90
18541;DHT22;9400;50.924;5.328;2023-07-31T11:13:42;19.50;99.90
18541;DHT22;9400;50.924;5.328;2023-07-31T11:16:10;19.50;99.90
18541;DHT22;9400;50.924;5.328;2023-07-31T11:18:41;19.60;99.90
18541;DHT22;9400;50.924;5.328;2023-07-31T11:21:12;19.80;99.90
18541;DHT22;9400;50.924;5.328;2023-07-31T11:23:40;19.70;99.90
18541;DHT22;9400;50.924;5.328;2023-07-31T11:26:08;19.80;99.90
18541;DHT22;9400;50.924;5.328;2023-07-31T11:28:37;19.80;99.90
18541;DHT22;9400;50.924;5.328;2023-07-31T11:31:09;19.90;99.90
18541;DHT22;9400;50.924;5.328;2023-07-31T11:33:37;20.00;99.90
18541;DHT22;9400;50.924;5.328;2023-07-31T11:36:05;20.20;99.90
18541;DHT22;9400;50.924;5.328;2023-07-31T11:38:35;20.40;99.90
18541;DHT22;9400;50.924;5.328;2023-07-31T11:41:03;20.40;99.90
18541;DHT22;9400;50.924;5.328;2023-07-31T11:43:32;20.40;99.90
18541;DHT22;9400;50.924;5.328;2023-07-31T11:46:01;20.40;99.90
18541;DHT22;9400;50.924;5.328;2023-07-31T11:48:30;20.30;99.90
18541;DHT22;9400;50.924;5.328;2023-07-31T11:51:00;20.30;99.90
18541;DHT22;9400;50.924;5.328;2023-07-31T11:53:35;20.40;99.90
18541;DHT22;9400;50.924;5.328;2023-07-31T11:56:04;20.60;99.90
18541;DHT22;9400;50.924;5.328;2023-07-31T11:58:34;20.80;99.90
18541;DHT22;9400;50.924;5.328;2023-07-31T12:01:02;21.00;99.90
18541;DHT22;9400;50.924;5.328;2023-07-31T12:03:30;21.20;99.90
18541;DHT22;9400;50.924;5.328;2023-07-31T12:05:58;21.40;99.90
18541;DHT22;9400;50.924;5.328;2023-07-31T12:08:26;21.50;99.90
18541;DHT22;9400;50.924;5.328;2023-07-31T12:11:02;21.40;99.90
18541;DHT22;9400;50.924;5.328;2023-07-31T12:13:31;21.30;99.90
18541;DHT22;9400;50.924;5.328;2023-07-31T12:16:00;21.40;99.90
18541;DHT22;9400;50.924;5.328;2023-07-31T12:18:30;21.40;99.90
18541;DHT22;9400;50.924;5.328;2023-07-31T12:21:01;21.20;99.90
18541;DHT22;9400;50.924;5.328;2023-07-31T12:23:30;21.00;99.90
18541;DHT22;9400;50.924;5.328;2023-07-31T12:26:03;20.90;99.90
18541;DHT22;9400;50.924;5.328;2023-07-31T12:28:34;20.70;99.90
18541;DHT22;9400;50.924;5.328;2023-07-31T12:31:01;20.60;99.90
18541;DHT22;9400;50.924;5.328;2023-07-31T12:33:31;20.80;99.90
18541;DHT22;9400;50.924;5.328;2023-07-31T12:36:02;21.00;99.90
18541;DHT22;9400;50.924;5.328;2023-07-31T12:38:30;21.60;99.90
18541;DHT22;9400;50.924;5.328;2023-07-31T12:40:57;22.30;99.90
18541;DHT22;9400;50.924;5.328;2023-07-31T12:43:26;22.40;99.90
18541;DHT22;9400;50.924;5.328;2023-07-31T12:45:55;22.80;99.90
18541;DHT22;9400;50.924;5.328;2023-07-31T12:48:23;22.60;99.90
18541;DHT22;9400;50.924;5.328;2023-07-31T12:50:50;22.20;99.90
18541;DHT22;9400;50.924;5.328;2023-07-31T12:53:18;21.80;99.90
18541;DHT22;9400;50.924;5.328;2023-07-31T12:55:45;21.40;99.90
18541;DHT22;9400;50.924;5.328;2023-07-31T12:58:13;21.60;99.90
18541;DHT22;9400;50.924;5.328;2023-07-31T13:00:42;21.50;99.90
18541;DHT22;9400;50.924;5.328;2023-07-31T13:03:10;21.60;99.90
18541;DHT22;9400;50.924;5.328;2023-07-31T13:05:37;21.40;99.90
18541;DHT22;9400;50.924;5.328;2023-07-31T13:08:05;21.20;99.90
18541;DHT22;9400;50.924;5.328;2023-07-31T13:10:32;21.10;99.90
18541;DHT22;9400;50.924;5.328;2023-07-31T13:13:00;20.90;99.90
18541;DHT22;9400;50.924;5.328;2023-07-31T13:15:27;21.00;99.90
18541;DHT22;9400;50.924;5.328;2023-07-31T13:17:56;20.90;99.90
18541;DHT22;9400;50.924;5.328;2023-07-31T13:20:23;20.80;99.90
18541;DHT22;9400;50.924;5.328;2023-07-31T13:22:50;20.80;99.90
18541;DHT22;9400;50.924;5.328;2023-07-31T13:25:18;20.70;99.90
18541;DHT22;9400;50.924;5.328;2023-07-31T13:27:45;20.60;99.90
18541;DHT22;9400;50.924;5.328;2023-07-31T13:30:12;20.50;99.90
18541;DHT22;9400;50.924;5.328;2023-07-31T13:32:40;20.60;99.90
18541;DHT22;9400;50.924;5.328;2023-07-31T13:35:09;20.70;99.90
18541;DHT22;9400;50.924;5.328;2023-07-31T13:37:38;20.70;99.90
18541;DHT22;9400;50.924;5.328;2023-07-31T13:40:06;20.70;99.90
18541;DHT22;9400;50.924;5.328;2023-07-31T13:42:34;20.90;99.90
18541;DHT22;9400;50.924;5.328;2023-07-31T13:45:01;20.80;99.90
18541;DHT22;9400;50.924;5.328;2023-07-31T13:47:29;20.90;99.90
18541;DHT22;9400;50.924;5.328;2023-07-31T13:49:57;20.80;99.90
18541;DHT22;9400;50.924;5.328;2023-07-31T13:52:26;20.70;99.90
18541;DHT22;9400;50.924;5.328;2023-07-31T13:54:53;20.80;99.90
18541;DHT22;9400;50.924;5.328;2023-07-31T13:57:21;20.90;99.90
18541;DHT22;9400;50.924;5.328;2023-07-31T13:59:49;20.70;99.90
18541;DHT22;9400;50.924;5.328;2023-07-31T14:02:16;20.60;99.90
18541;DHT22;9400;50.924;5.328;2023-07-31T14:04:44;20.70;99.90
18541;DHT22;9400;50.924;5.328;2023-07-31T14:07:11;20.60;99.90
18541;DHT22;9400;50.924;5.328;2023-07-31T14:09:40;20.50;99.90
18541;DHT22;9400;50.924;5.328;2023-07-31T14:12:08;20.40;99.90
18541;DHT22;9400;50.924;5.328;2023-07-31T14:14:35;20.40;99.90
18541;DHT22;9400;50.924;5.328;2023-07-31T14:17:03;20.40;99.90
18541;DHT22;9400;50.924;5.328;2023-07-31T14:19:31;20.30;99.90
18541;DHT22;9400;50.924;5.328;2023-07-31T14:21:59;20.30;99.90
18541;DHT22;9400;50.924;5.328;2023-07-31T14:24:26;20.10;99.90
18541;DHT22;9400;50.924;5.328;2023-07-31T14:26:55;20.00;99.90
18541;DHT22;9400;50.924;5.328;2023-07-31T14:29:22;20.00;99.90
18541;DHT22;9400;50.924;5.328;2023-07-31T14:31:50;19.90;99.90
18541;DHT22;9400;50.924;5.328;2023-07-31T14:34:17;19.90;99.90
18541;DHT22;9400;50.924;5.328;2023-07-31T14:36:45;19.70;99.90
18541;DHT22;9400;50.924;5.328;2023-07-31T14:39:15;19.60;99.90
18541;DHT22;9400;50.924;5.328;2023-07-31T14:41:43;19.50;99.90
18541;DHT22;9400;50.924;5.328;2023-07-31T14:44:12;19.30;99.90
18541;DHT22;9400;50.924;5.328;2023-07-31T14:46:40;19.20;99.90
18541;DHT22;9400;50.924;5.328;2023-07-31T14:49:07;19.30;99.90
18541;DHT22;9400;50.924;5.328;2023-07-31T14:51:34;19.20;99.90
18541;DHT22;9400;50.924;5.328;2023-07-31T14:54:02;19.30;99.90
18541;DHT22;9400;50.924;5.328;2023-07-31T14:56:29;19.20;99.90
18541;DHT22;9400;50.924;5.328;2023-07-31T14:58:57;19.20;99.90
18541;DHT22;9400;50.924;5.328;2023-07-31T15:01:26;19.20;99.90
18541;DHT22;9400;50.924;5.328;2023-07-31T15:03:53;19.20;99.90
18541;DHT22;9400;50.924;5.328;2023-07-31T15:06:21;19.00;99.90
18541;DHT22;9400;50.924;5.328;2023-07-31T15:08:51;18.90;99.90
18541;DHT22;9400;50.924;5.328;2023-07-31T15:11:18;18.90;99.90
18541;DHT22;9400;50.924;5.328;2023-07-31T15:13:46;18.80;99.90
18541;DHT22;9400;50.924;5.328;2023-07-31T15:16:14;18.70;99.90
18541;DHT22;9400;50.924;5.328;2023-07-31T15:18:43;18.70;99.90
18541;DHT22;9400;50.924;5.328;2023-07-31T15:21:10;18.80;99.90
18541;DHT22;9400;50.924;5.328;2023-07-31T15:23:37;18.80;99.90
18541;DHT22;9400;50.924;5.328;2023-07-31T15:26:05;18.70;99.90
18541;DHT22;9400;50.924;5.328;2023-07-31T15:28:33;18.80;99.90
18541;DHT22;9400;50.924;5.328;2023-07-31T15:31:03;18.70;99.90
18541;DHT22;9400;50.924;5.328;2023-07-31T15:33:30;18.80;99.90
18541;DHT22;9400;50.924;5.328;2023-07-31T15:35:59;18.80;99.90
18541;DHT22;9400;50.924;5.328;2023-07-31T15:38:27;18.80;99.90
18541;DHT22;9400;50.924;5.328;2023-07-31T15:40:54;18.80;99.90
18541;DHT22;9400;50.924;5.328;2023-07-31T15:43:22;18.80;99.90
18541;DHT22;9400;50.924;5.328;2023-07-31T15:45:49;18.70;99.90
18541;DHT22;9400;50.924;5.328;2023-07-31T15:48:16;18.80;99.90
18541;DHT22;9400;50.924;5.328;2023-07-31T15:50:44;18.80;99.90
18541;DHT22;9400;50.924;5.328;2023-07-31T15:53:13;18.80;99.90